sensor_id;sensor_type;location;lat;lon;timestamp;pressure;altitude;pressure_sealevel;temperature;humidity
36354;BME280;22383;51.114;13.666;2023-08-06T00:02:26;68757.53;;;14.21;100.00
36354;BME280;22383;51.114;13.666;2023-08-06T00:04:54;68754.13;;;14.18;100.00
36354;BME280;22383;51.114;13.666;2023-08-06T00:07:21;68754.31;;;14.21;100.00
36354;BME280;22383;51.114;13.666;2023-08-06T00:09:48;68750.31;;;14.17;100.00
36354;BME280;22383;51.114;13.666;2023-08-06T00:12:15;68756.78;;;14.18;100.00
36354;BME280;22383;51.114;13.666;2023-08-06T00:14:42;68756.56;;;14.23;100.00
36354;BME280;22383;51.114;13.666;2023-08-06T00:17:10;68754.69;;;14.18;100.00
36354;BME280;22383;51.114;13.666;2023-08-06T00:19:37;68760.38;;;14.24;100.00
36354;BME280;22383;51.114;13.666;2023-08-06T00:22:05;68756.22;;;14.17;100.00
36354;BME280;22383;51.114;13.666;2023-08-06T00:24:32;68750.72;;;14.15;100.00
36354;BME280;22383;51.114;13.666;2023-08-06T00:27:00;68752.44;;;14.16;100.00
36354;BME280;22383;51.114;13.666;2023-08-06T00:29:27;68759.25;;;14.23;100.00
36354;BME280;22383;51.114;13.666;2023-08-06T00:31:54;68766.06;;;14.29;100.00
36354;BME280;22383;51.114;13.666;2023-08-06T00:34:21;68782.38;;;14.41;100.00
36354;BME280;22383;51.114;13.666;2023-08-06T00:36:48;68783.69;;;14.45;100.00
36354;BME280;22383;51.114;13.666;2023-08-06T00:39:16;68768.13;;;14.35;100.00
36354;BME280;22383;51.114;13.666;2023-08-06T00:41:43;68771.56;;;14.31;100.00
36354;BME280;22383;51.114;13.666;2023-08-06T00:44:11;68757.72;;;14.24;100.00
36354;BME280;22383;51.114;13.666;2023-08-06T00:46:39;68761.13;;;14.27;100.00
36354;BME280;22383;51.114;13.666;2023-08-06T00:49:06;68774.41;;;14.34;100.00
36354;BME280;22383;51.114;13.666;2023-08-06T00:51:34;68772.31;;;14.34;100.00
36354;BME280;22383;51.114;13.666;2023-08-06T00:54:03;68780.06;;;14.46;100.00
36354;BME280;22383;51.114;13.666;2023-08-06T00:56:31;68781.41;;;14.43;100.00
36354;BME280;22383;51.114;13.666;2023-08-06T00:59:00;68781.59;;;14.45;100.00
36354;BME280;22383;51.114;13.666;2023-08-06T01:01:27;68789.38;;;14.50;100.00
36354;BME280;22383;51.114;13.666;2023-08-06T01:03:56;68783.88;;;14.47;100.00
36354;BME280;22383;51.114;13.666;2023-08-06T01:06:55;68783.13;;;14.44;100.00
36354;BME280;22383;51.114;13.666;2023-08-06T01:12:09;68778.38;;;14.45;100.00
36354;BME280;22383;51.114;13.666;2023-08-06T01:15:06;68772.31;;;14.34;100.00
36354;BME280;22383;51.114;13.666;2023-08-06T01:17:35;68744.94;;;14.31;100.00
36354;BME280;22383;51.114;13.666;2023-08-06T01:20:03;68775.75;;;14.37;100.00
36354;BME280;22383;51.114;13.666;2023-08-06T01:22:31;68767.56;;;14.35;100.00
36354;BME280;22383;51.114;13.666;2023-08-06T01:24:58;68758.69;;;14.22;100.00
36354;BME280;22383;51.114;13.666;2023-08-06T01:27:46;68756.97;;;14.21;100.00
36354;BME280;22383;51.114;13.666;2023-08-06T01:30:33;68750.88;;;14.17;100.00
36354;BME280;22383;51.114;13.666;2023-08-06T01:33:05;68752.44;;;14.16;100.00
36354;BME280;22383;51.114;13.666;2023-08-06T01:35:33;68752.44;;;14.16;100.00
36354;BME280;22383;51.114;13.666;2023-08-06T01:38:02;68751.44;;;14.18;100.00
36354;BME280;22383;51.114;13.666;2023-08-06T01:40:30;68754.31;;;14.21;100.00
36354;BME280;22383;51.114;13.666;2023-08-06T01:42:57;68756.56;;;14.23;100.00
36354;BME280;22383;51.114;13.666;2023-08-06T01:45:25;68761.69;;;14.27;100.00
36354;BME280;22383;51.114;13.666;2023-08-06T01:47:52;68762.25;;;14.28;100.00
36354;BME280;22383;51.114;13.666;2023-08-06T01:50:19;68759.41;;;14.25;100.00
36354;BME280;22383;51.114;13.666;2023-08-06T01:52:46;68758.47;;;14.27;100.00
36354;BME280;22383;51.114;13.666;2023-08-06T01:55:13;68761.13;;;14.27;100.00
36354;BME280;22383;51.114;13.666;2023-08-06T01:57:40;68764.16;;;14.25;100.00
36354;BME280;22383;51.114;13.666;2023-08-06T02:00:08;68762.66;;;14.26;100.00
36354;BME280;22383;51.114;13.666;2023-08-06T02:02:41;68762.66;;;14.26;100.00
36354;BME280;22383;51.114;13.666;2023-08-06T02:05:09;68757.91;;;14.26;100.00
36354;BME280;22383;51.114;13.666;2023-08-06T02:07:39;68758.69;;;14.22;100.00
36354;BME280;22383;51.114;13.666;2023-08-06T02:10:06;68756.97;;;14.21;100.00
36354;BME280;22383;51.114;13.666;2023-08-06T02:12:34;68749.94;;;14.19;100.00
36354;BME280;22383;51.114;13.666;2023-08-06T02:15:01;68754.69;;;14.18;100.00
36354;BME280;22383;51.114;13.666;2023-08-06T02:17:28;68754.69;;;14.18;100.00
36354;BME280;22383;51.114;13.666;2023-08-06T02:19:55;68754.69;;;14.18;100.00
36354;BME280;22383;51.114;13.666;2023-08-06T02:22:22;68754.69;;;14.18;100.00
36354;BME280;22383;51.114;13.666;2023-08-06T02:24:50;68759.81;;;14.23;100.00
36354;BME280;22383;51.114;13.666;2023-08-06T02:27:17;68757.53;;;14.21;100.00
36354;BME280;22383;51.114;13.666;2023-08-06T02:29:44;68753.75;;;14.20;100.00
36354;BME280;22383;51.114;13.666;2023-08-06T02:32:12;68756.97;;;14.21;100.00
36354;BME280;22383;51.114;13.666;2023-08-06T02:34:39;68755.25;;;14.19;100.00
36354;BME280;22383;51.114;13.666;2023-08-06T02:37:07;68752.03;;;14.18;100.00
36354;BME280;22383;51.114;13.666;2023-08-06T02:39:34;68735.84;;;14.23;100.00
36354;BME280;22383;51.114;13.666;2023-08-06T02:42:03;68752.59;;;14.19;100.00
36354;BME280;22383;51.114;13.666;2023-08-06T02:44:31;68754.69;;;14.18;100.00
36354;BME280;22383;51.114;13.666;2023-08-06T02:46:58;68752.03;;;14.18;100.00
36354;BME280;22383;51.114;13.666;2023-08-06T02:49:25;68754.31;;;14.21;100.00
36354;BME280;22383;51.114;13.666;2023-08-06T02:51:53;68728.47;;;14.16;100.00
36354;BME280;22383;51.114;13.666;2023-08-06T02:54:20;68751.28;;;14.15;100.00
36354;BME280;22383;51.114;13.666;2023-08-06T02:56:48;68754.88;;;14.21;100.00
36354;BME280;22383;51.114;13.666;2023-08-06T02:59:22;68752.59;;;14.19;100.00
36354;BME280;22383;51.114;13.666;2023-08-06T03:02:21;68753.75;;;14.20;100.00
36354;BME280;22383;51.114;13.666;2023-08-06T03:05:00;68752.44;;;14.16;100.00
36354;BME280;22383;51.114;13.666;2023-08-06T03:07:32;68744.25;;;14.14;100.00
36354;BME280;22383;51.114;13.666;2023-08-06T03:10:07;68747.22;;;14.33;100.00
36354;BME280;22383;51.114;13.666;2023-08-06T03:12:35;68781.41;;;14.43;100.00
36354;BME280;22383;51.114;13.666;2023-08-06T03:15:04;68742.13;;;14.29;100.00
36354;BME280;22383;51.114;13.666;2023-08-06T03:17:32;68757.72;;;14.24;100.00
36354;BME280;22383;51.114;13.666;2023-08-06T03:19:59;68753.56;;;14.17;100.00
36354;BME280;22383;51.114;13.666;2023-08-06T03:22:28;68750.72;;;14.15;100.00
36354;BME280;22383;51.114;13.666;2023-08-06T03:24:55;68752.44;;;14.16;100.00
36354;BME280;22383;51.114;13.666;2023-08-06T03:27:25;68751.84;;;14.16;100.00
36354;BME280;22383;51.114;13.666;2023-08-06T03:29:52;68750.88;;;14.17;100.00
36354;BME280;22383;51.114;13.666;2023-08-06T03:32:22;68747.09;;;14.16;100.00
36354;BME280;22383;51.114;13.666;2023-08-06T03:34:50;68754.69;;;14.18;100.00
36354;BME280;22383;51.114;13.666;2023-08-06T03:37:17;68759.25;;;14.23;100.00
36354;BME280;22383;51.114;13.666;2023-08-06T03:39:45;68759.25;;;14.23;100.00
36354;BME280;22383;51.114;13.666;2023-08-06T03:42:12;68762.66;;;14.26;100.00
36354;BME280;22383;51.114;13.666;2023-08-06T03:44:39;68757.53;;;14.21;100.00
36354;BME280;22383;51.114;13.666;2023-08-06T03:47:08;68750.88;;;14.17;100.00
36354;BME280;22383;51.114;13.666;2023-08-06T03:49:36;68758.69;;;14.22;100.00
36354;BME280;22383;51.114;13.666;2023-08-06T03:52:05;68759.63;;;14.21;100.00
36354;BME280;22383;51.114;13.666;2023-08-06T03:54:32;68751.84;;;14.16;100.00
36354;BME280;22383;51.114;13.666;2023-08-06T03:56:59;68747.47;;;14.14;100.00
36354;BME280;22383;51.114;13.666;2023-08-06T03:59:26;68723.34;;;14.12;100.00
36354;BME280;22383;51.114;13.666;2023-08-06T04:01:55;68742.94;;;14.10;100.00
36354;BME280;22383;51.114;13.666;2023-08-06T04:04:23;68745.22;;;14.12;100.00
36354;BME280;22383;51.114;13.666;2023-08-06T04:06:50;68750.72;;;14.15;100.00
36354;BME280;22383;51.114;13.666;2023-08-06T04:09:17;68746.34;;;14.13;100.00
36354;BME280;22383;51.114;13.666;2023-08-06T04:11:45;68749.56;;;14.14;100.00
36354;BME280;22383;51.114;13.666;2023-08-06T04:14:12;68747.47;;;14.14;100.00
36354;BME280;22383;51.114;13.666;2023-08-06T04:16:39;68750.31;;;14.17;100.00
36354;BME280;22383;51.114;13.666;2023-08-06T04:19:07;68751.28;;;14.15;100.00
36354;BME280;22383;51.114;13.666;2023-08-06T04:21:34;68747.66;;;14.17;100.00
36354;BME280;22383;51.114;13.666;2023-08-06T04:24:03;68747.31;;;14.12;100.00
36354;BME280;22383;51.114;13.666;2023-08-06T04:26:31;68746.75;;;14.11;100.00
36354;BME280;22383;51.114;13.666;2023-08-06T04:28:59;68719.94;;;14.09;100.00
36354;BME280;22383;51.114;13.666;2023-08-06T04:31:28;68747.88;;;14.12;100.00
36354;BME280;22383;51.114;13.666;2023-08-06T04:33:56;68758.09;;;14.22;100.00
36354;BME280;22383;51.114;13.666;2023-08-06T04:36:23;68760.75;;;14.22;100.00
36354;BME280;22383;51.114;13.666;2023-08-06T04:38:50;68756.56;;;14.23;100.00
36354;BME280;22383;51.114;13.666;2023-08-06T04:41:18;68750.88;;;14.17;100.00
36354;BME280;22383;51.114;13.666;2023-08-06T04:43:45;68748.44;;;14.13;100.00
36354;BME280;22383;51.114;13.666;2023-08-06T04:46:12;68751.69;;;14.13;100.00
36354;BME280;22383;51.114;13.666;2023-08-06T04:48:40;68755.25;;;14.19;100.00
36354;BME280;22383;51.114;13.666;2023-08-06T04:51:07;68754.69;;;14.18;100.00
36354;BME280;22383;51.114;13.666;2023-08-06T04:53:34;68750.13;;;14.14;100.00
36354;BME280;22383;51.114;13.666;2023-08-06T04:56:01;68753.00;;;14.17;100.00
36354;BME280;22383;51.114;13.666;2023-08-06T04:58:28;68757.53;;;14.21;100.00
36354;BME280;22383;51.114;13.666;2023-08-06T05:00:55;68756.41;;;14.20;100.00
36354;BME280;22383;51.114;13.666;2023-08-06T05:03:23;68760.38;;;14.24;100.00
36354;BME280;22383;51.114;13.666;2023-08-06T05:05:50;68756.56;;;14.23;100.00
36354;BME280;22383;51.114;13.666;2023-08-06T05:08:17;68738.13;;;14.25;100.00
36354;BME280;22383;51.114;13.666;2023-08-06T05:10:45;68762.66;;;14.26;100.00
36354;BME280;22383;51.114;13.666;2023-08-06T05:13:12;68761.13;;;14.27;100.00
36354;BME280;22383;51.114;13.666;2023-08-06T05:15:41;68759.59;;;14.28;100.00
36354;BME280;22383;51.114;13.666;2023-08-06T05:18:09;68763.22;;;14.26;100.00
36354;BME280;22383;51.114;13.666;2023-08-06T05:20:38;68762.25;;;14.28;100.00
36354;BME280;22383;51.114;13.666;2023-08-06T05:23:05;68761.13;;;14.27;100.00
36354;BME280;22383;51.114;13.666;2023-08-06T05:25:34;68769.47;;;14.32;100.00
36354;BME280;22383;51.114;13.666;2023-08-06T05:28:02;68768.34;;;14.31;100.00
36354;BME280;22383;51.114;13.666;2023-08-06T05:30:29;68768.34;;;14.31;100.00
36354;BME280;22383;51.114;13.666;2023-08-06T05:32:57;68770.06;;;14.32;100.00
36354;BME280;22383;51.114;13.666;2023-08-06T05:35:24;68772.31;;;14.34;100.00
36354;BME280;22383;51.114;13.666;2023-08-06T05:37:51;68746.09;;;14.32;100.00
36354;BME280;22383;51.114;13.666;2023-08-06T05:40:18;68761.13;;;14.27;100.00
36354;BME280;22383;51.114;13.666;2023-08-06T05:42:45;68763.03;;;14.31;100.00
36354;BME280;22383;51.114;13.666;2023-08-06T05:45:12;68762.66;;;14.26;100.00
36354;BME280;22383;51.114;13.666;2023-08-06T05:47:40;68768.34;;;14.31;100.00
36354;BME280;22383;51.114;13.666;2023-08-06T05:50:07;68747.78;;;14.34;100.00
36354;BME280;22383;51.114;13.666;2023-08-06T05:52:35;68767.03;;;14.27;100.00
36354;BME280;22383;51.114;13.666;2023-08-06T05:55:03;68761.13;;;14.27;100.00
36354;BME280;22383;51.114;13.666;2023-08-06T05:57:30;68776.69;;;14.36;100.00
36354;BME280;22383;51.114;13.666;2023-08-06T05:59:57;68770.22;;;14.35;100.00
36354;BME280;22383;51.114;13.666;2023-08-06T06:02:24;68750.06;;;14.36;100.00
36354;BME280;22383;51.114;13.666;2023-08-06T06:04:51;68763.97;;;14.29;100.00
36354;BME280;22383;51.114;13.666;2023-08-06T06:07:19;68762.66;;;14.26;100.00
36354;BME280;22383;51.114;13.666;2023-08-06T06:09:46;68766.25;;;14.31;100.00
36354;BME280;22383;51.114;13.666;2023-08-06T06:12:13;68770.22;;;14.35;100.00
36354;BME280;22383;51.114;13.666;2023-08-06T06:14:40;68769.66;;;14.34;100.00
36354;BME280;22383;51.114;13.666;2023-08-06T06:17:07;68764.38;;;14.27;100.00
36354;BME280;22383;51.114;13.666;2023-08-06T06:19:34;68757.72;;;14.24;100.00
36354;BME280;22383;51.114;13.666;2023-08-06T06:22:03;68757.53;;;14.21;100.00
36354;BME280;22383;51.114;13.666;2023-08-06T06:24:30;68763.03;;;14.31;100.00
36354;BME280;22383;51.114;13.666;2023-08-06T06:26:57;68765.69;;;14.31;100.00
36354;BME280;22383;51.114;13.666;2023-08-06T06:29:24;68762.25;;;14.28;100.00
36354;BME280;22383;51.114;13.666;2023-08-06T06:31:51;68763.97;;;14.29;100.00
36354;BME280;22383;51.114;13.666;2023-08-06T06:34:19;68768.50;;;14.33;100.00
36354;BME280;22383;51.114;13.666;2023-08-06T06:36:46;68748.38;;;14.34;100.00
36354;BME280;22383;51.114;13.666;2023-08-06T06:39:13;68759.16;;;14.44;100.00
36354;BME280;22383;51.114;13.666;2023-08-06T06:41:40;68778.00;;;14.40;100.00
36354;BME280;22383;51.114;13.666;2023-08-06T06:44:17;68777.41;;;14.39;100.00
36354;BME280;22383;51.114;13.666;2023-08-06T06:46:46;68778.41;;;14.37;100.00
36354;BME280;22383;51.114;13.666;2023-08-06T06:49:14;68762.56;;;14.47;100.00
36354;BME280;22383;51.114;13.666;2023-08-06T06:51:41;68786.13;;;14.49;100.00
36354;BME280;22383;51.114;13.666;2023-08-06T06:54:08;68789.38;;;14.50;100.00
36354;BME280;22383;51.114;13.666;2023-08-06T06:56:35;68789.38;;;14.50;100.00
36354;BME280;22383;51.114;13.666;2023-08-06T06:59:02;68783.69;;;14.45;100.00
36354;BME280;22383;51.114;13.666;2023-08-06T07:01:29;68781.19;;;14.47;100.00
36354;BME280;22383;51.114;13.666;2023-08-06T07:03:57;68784.06;;;14.50;100.00
36354;BME280;22383;51.114;13.666;2023-08-06T07:06:24;68790.69;;;14.53;100.00
36354;BME280;22383;51.114;13.666;2023-08-06T07:08:51;68795.03;;;14.55;100.00
36354;BME280;22383;51.114;13.666;2023-08-06T07:11:19;68803.22;;;14.65;100.00
36354;BME280;22383;51.114;13.666;2023-08-06T07:13:46;68774.53;;;14.58;100.00
36354;BME280;22383;51.114;13.666;2023-08-06T07:16:13;68800.00;;;14.64;100.00
36354;BME280;22383;51.114;13.666;2023-08-06T07:18:40;68805.50;;;14.67;100.00
36354;BME280;22383;51.114;13.666;2023-08-06T07:21:07;68815.56;;;14.73;100.00
36354;BME280;22383;51.114;13.666;2023-08-06T07:23:34;68818.97;;;14.77;100.00
36354;BME280;22383;51.114;13.666;2023-08-06T07:26:02;68817.25;;;14.75;100.00
36354;BME280;22383;51.114;13.666;2023-08-06T07:28:29;68802.66;;;14.64;100.00
36354;BME280;22383;51.114;13.666;2023-08-06T07:30:56;68811.75;;;14.72;100.00
36354;BME280;22383;51.114;13.666;2023-08-06T07:33:23;68809.06;;;14.72;100.00
36354;BME280;22383;51.114;13.666;2023-08-06T07:35:50;68813.09;;;14.69;100.00
36354;BME280;22383;51.114;13.666;2023-08-06T07:38:17;68778.50;;;14.62;100.00
36354;BME280;22383;51.114;13.666;2023-08-06T07:40:45;68781.91;;;14.65;100.00
36354;BME280;22383;51.114;13.666;2023-08-06T07:43:12;68812.31;;;14.73;100.00
36354;BME280;22383;51.114;13.666;2023-08-06T07:45:39;68811.75;;;14.72;100.00
36354;BME280;22383;51.114;13.666;2023-08-06T07:48:06;68811.19;;;14.72;100.00
36354;BME280;22383;51.114;13.666;2023-08-06T07:50:34;68803.22;;;14.65;100.00
36354;BME280;22383;51.114;13.666;2023-08-06T07:53:01;68787.03;;;14.69;100.00
36354;BME280;22383;51.114;13.666;2023-08-06T07:55:28;68813.84;;;14.72;100.00
36354;BME280;22383;51.114;13.666;2023-08-06T07:57:55;68795.00;;;14.77;100.00
36354;BME280;22383;51.114;13.666;2023-08-06T08:00:22;68809.47;;;14.70;100.00
36354;BME280;22383;51.114;13.666;2023-08-06T08:02:50;68812.13;;;14.70;100.00
36354;BME280;22383;51.114;13.666;2023-08-06T08:05:17;68803.22;;;14.65;100.00
36354;BME280;22383;51.114;13.666;2023-08-06T08:07:44;68793.53;;;14.56;100.00
36354;BME280;22383;51.114;13.666;2023-08-06T08:10:11;68797.91;;;14.57;100.00
36354;BME280;22383;51.114;13.666;2023-08-06T08:12:39;68771.38;;;14.36;100.00
36354;BME280;22383;51.114;13.666;2023-08-06T08:15:06;68749.50;;;14.35;100.00
36354;BME280;22383;51.114;13.666;2023-08-06T08:17:33;68778.56;;;14.40;100.00
36354;BME280;22383;51.114;13.666;2023-08-06T08:20:02;68778.75;;;14.43;100.00
36354;BME280;22383;51.114;13.666;2023-08-06T08:22:29;68779.31;;;14.43;100.00
36354;BME280;22383;51.114;13.666;2023-08-06T08:24:56;68775.16;;;14.37;100.00
36354;BME280;22383;51.114;13.666;2023-08-06T08:27:24;68772.69;;;14.40;100.00
36354;BME280;22383;51.114;13.666;2023-08-06T08:29:51;68789.94;;;14.50;100.00
36354;BME280;22383;51.114;13.666;2023-08-06T08:32:18;68806.63;;;14.68;100.00
36354;BME280;22383;51.114;13.666;2023-08-06T08:34:45;68810.06;;;14.71;100.00
36354;BME280;22383;51.114;13.666;2023-08-06T08:37:13;68808.91;;;14.70;100.00
36354;BME280;22383;51.114;13.666;2023-08-06T08:39:40;68761.44;;;14.46;100.00
36354;BME280;22383;51.114;13.666;2023-08-06T08:42:08;68751.78;;;14.37;100.00
36354;BME280;22383;51.114;13.666;2023-08-06T08:44:37;68748.94;;;14.35;100.00
36354;BME280;22383;51.114;13.666;2023-08-06T08:47:06;68755.25;;;14.19;100.00
36354;BME280;22383;51.114;13.666;2023-08-06T08:49:36;68727.34;;;14.15;100.00
36354;BME280;22383;51.114;13.666;2023-08-06T08:52:04;68740.66;;;14.08;100.00
36354;BME280;22383;51.114;13.666;2023-08-06T08:54:38;68732.13;;;14.00;100.00
36354;BME280;22383;51.114;13.666;2023-08-06T08:57:06;68730.44;;;13.99;100.00
36354;BME280;22383;51.114;13.666;2023-08-06T08:59:34;68730.63;;;13.94;100.00
36354;BME280;22383;51.114;13.666;2023-08-06T09:02:01;68731.97;;;13.98;100.00
36354;BME280;22383;51.114;13.666;2023-08-06T09:04:30;68734.41;;;14.03;100.00
36354;BME280;22383;51.114;13.666;2023-08-06T09:07:01;68743.88;;;14.09;100.00
36354;BME280;22383;51.114;13.666;2023-08-06T09:09:31;68736.50;;;14.02;100.00
36354;BME280;22383;51.114;13.666;2023-08-06T09:12:01;68742.75;;;14.08;100.00
36354;BME280;22383;51.114;13.666;2023-08-06T09:14:29;68741.41;;;14.11;100.00
36354;BME280;22383;51.114;13.666;2023-08-06T09:16:56;68742.94;;;14.10;100.00
36354;BME280;22383;51.114;13.666;2023-08-06T09:19:26;68722.78;;;14.11;100.00
36354;BME280;22383;51.114;13.666;2023-08-06T09:21:55;68750.72;;;14.15;100.00
36354;BME280;22383;51.114;13.666;2023-08-06T09:24:23;68752.59;;;14.19;100.00
36354;BME280;22383;51.114;13.666;2023-08-06T09:26:50;68733.59;;;14.21;100.00
36354;BME280;22383;51.114;13.666;2023-08-06T09:29:18;68767.00;;;14.34;100.00
36354;BME280;22383;51.114;13.666;2023-08-06T09:31:49;68764.53;;;14.30;100.00
36354;BME280;22383;51.114;13.666;2023-08-06T09:34:21;68769.66;;;14.34;100.00
36354;BME280;22383;51.114;13.666;2023-08-06T09:36:52;68782.16;;;14.46;100.00
36354;BME280;22383;51.114;13.666;2023-08-06T09:39:26;68796.75;;;14.56;100.00
36354;BME280;22383;51.114;13.666;2023-08-06T09:41:57;68799.81;;;14.62;100.00
36354;BME280;22383;51.114;13.666;2023-08-06T09:44:26;68808.16;;;14.67;100.00
36354;BME280;22383;51.114;13.666;2023-08-06T09:46:55;68816.31;;;14.77;100.00
36354;BME280;22383;51.114;13.666;2023-08-06T09:49:48;68803.97;;;14.68;100.00
36354;BME280;22383;51.114;13.666;2023-08-06T09:52:14;68803.22;;;14.65;100.00
36354;BME280;22383;51.114;13.666;2023-08-06T09:54:43;68781.91;;;14.65;100.00
36354;BME280;22383;51.114;13.666;2023-08-06T09:57:11;68820.69;;;14.78;100.00
36354;BME280;22383;51.114;13.666;2023-08-06T09:59:39;68825.78;;;14.83;100.00
36354;BME280;22383;51.114;13.666;2023-08-06T10:02:13;68836.03;;;14.92;100.00
36354;BME280;22383;51.114;13.666;2023-08-06T10:04:43;68828.06;;;14.85;100.00
36354;BME280;22383;51.114;13.666;2023-08-06T10:07:21;68821.16;;;15.00;100.00
36354;BME280;22383;51.114;13.666;2023-08-06T10:09:49;68843.59;;;15.01;100.00
36354;BME280;22383;51.114;13.666;2023-08-06T10:12:17;68806.94;;;14.87;100.00
36354;BME280;22383;51.114;13.666;2023-08-06T10:14:47;68808.09;;;14.88;100.00
36354;BME280;22383;51.114;13.666;2023-08-06T10:17:17;68801.81;;;14.83;100.00
36354;BME280;22383;51.114;13.666;2023-08-06T10:19:45;68827.50;;;14.84;100.00
36354;BME280;22383;51.114;13.666;2023-08-06T10:22:14;68835.44;;;14.91;100.00
36354;BME280;22383;51.114;13.666;2023-08-06T10:24:55;68841.91;;;15.00;100.00
36354;BME280;22383;51.114;13.666;2023-08-06T10:30:32;68880.97;;;15.32;100.00
36354;BME280;22383;51.114;13.666;2023-08-06T10:33:03;68893.66;;;15.46;100.00
36354;BME280;22383;51.114;13.666;2023-08-06T10:35:44;68891.78;;;15.42;100.00
36354;BME280;22383;51.114;13.666;2023-08-06T10:38:14;68888.53;;;15.42;100.00
36354;BME280;22383;51.114;13.666;2023-08-06T10:43:27;68915.28;;;15.66;100.00
36354;BME280;22383;51.114;13.666;2023-08-06T10:45:56;68924.22;;;15.72;100.00
36354;BME280;22383;51.114;13.666;2023-08-06T10:48:38;68925.56;;;15.75;100.00
36354;BME280;22383;51.114;13.666;2023-08-06T10:51:09;68926.50;;;15.74;100.00
36354;BME280;22383;51.114;13.666;2023-08-06T10:53:38;68903.66;;;15.75;100.00
36354;BME280;22383;51.114;13.666;2023-08-06T10:56:12;68930.09;;;15.79;100.00
36354;BME280;22383;51.114;13.666;2023-08-06T10:58:41;68954.97;;;15.99;100.00
36354;BME280;22383;51.114;13.666;2023-08-06T11:01:09;68944.34;;;15.92;100.00
36354;BME280;22383;51.114;13.666;2023-08-06T11:03:37;68915.59;;;15.85;100.00
36354;BME280;22383;51.114;13.666;2023-08-06T11:06:09;68933.34;;;15.80;100.00
36354;BME280;22383;51.114;13.666;2023-08-06T11:08:38;68916.16;;;15.86;100.00
36354;BME280;22383;51.114;13.666;2023-08-06T11:11:13;68951.00;;;15.96;100.00
36354;BME280;22383;51.114;13.666;2023-08-06T11:13:43;68943.59;;;15.89;100.00
36354;BME280;22383;51.114;13.666;2023-08-06T11:16:12;68907.63;;;15.78;100.00
36354;BME280;22383;51.114;13.666;2023-08-06T11:18:40;68961.78;;;16.05;100.00
36354;BME280;22383;51.114;13.666;2023-08-06T11:21:09;68964.66;;;16.08;100.00
36354;BME280;22383;51.114;13.666;2023-08-06T11:23:36;68971.09;;;16.16;100.00
36354;BME280;22383;51.114;13.666;2023-08-06T11:26:03;68981.16;;;16.23;100.00
36354;BME280;22383;51.114;13.666;2023-08-06T11:28:31;68999.16;;;16.44;100.00
36354;BME280;22383;51.114;13.666;2023-08-06T11:30:58;68974.22;;;16.38;100.00
36354;BME280;22383;51.114;13.666;2023-08-06T11:33:28;68987.44;;;16.29;100.00
36354;BME280;22383;51.114;13.666;2023-08-06T11:35:56;68941.19;;;16.09;100.00
36354;BME280;22383;51.114;13.666;2023-08-06T11:38:26;68937.78;;;16.05;100.00
36354;BME280;22383;51.114;13.666;2023-08-06T11:40:54;68932.09;;;16.00;100.00
36354;BME280;22383;51.114;13.666;2023-08-06T11:43:21;68954.41;;;15.99;100.00
36354;BME280;22383;51.114;13.666;2023-08-06T11:45:49;68961.41;;;16.07;100.00
36354;BME280;22383;51.114;13.666;2023-08-06T11:48:17;68979.06;;;16.23;100.00
36354;BME280;22383;51.114;13.666;2023-08-06T11:50:45;68989.88;;;16.33;100.00
36354;BME280;22383;51.114;13.666;2023-08-06T11:53:13;68981.59;;;16.45;100.00
36354;BME280;22383;51.114;13.666;2023-08-06T11:55:41;68993.00;;;16.55;100.00
36354;BME280;22383;51.114;13.666;2023-08-06T11:58:10;68974.78;;;16.39;100.00
36354;BME280;22383;51.114;13.666;2023-08-06T12:00:38;68994.41;;;16.37;100.00
36354;BME280;22383;51.114;13.666;2023-08-06T12:03:06;68955.41;;;16.21;100.00
36354;BME280;22383;51.114;13.666;2023-08-06T12:05:33;68958.84;;;16.24;100.00
36354;BME280;22383;51.114;13.666;2023-08-06T12:08:02;68977.91;;;16.22;100.00
36354;BME280;22383;51.114;13.666;2023-08-06T12:10:31;68949.72;;;16.16;100.00
36354;BME280;22383;51.114;13.666;2023-08-06T12:12:58;68970.50;;;16.16;100.00
36354;BME280;22383;51.114;13.666;2023-08-06T12:15:25;68952.03;;;16.18;100.00
36354;BME280;22383;51.114;13.666;2023-08-06T12:17:52;68979.06;;;16.23;100.00
36354;BME280;22383;51.114;13.666;2023-08-06T12:20:20;68975.91;;;16.40;100.00
36354;BME280;22383;51.114;13.666;2023-08-06T12:22:47;68998.09;;;16.60;100.00
36354;BME280;22383;51.114;13.666;2023-08-06T12:25:15;69035.81;;;16.72;100.00
36354;BME280;22383;51.114;13.666;2023-08-06T12:27:44;69008.38;;;16.69;100.00
36354;BME280;22383;51.114;13.666;2023-08-06T12:30:12;69026.50;;;16.69;100.00
36354;BME280;22383;51.114;13.666;2023-08-06T12:32:40;69031.47;;;16.71;100.00
36354;BME280;22383;51.114;13.666;2023-08-06T12:35:07;69030.88;;;16.70;100.00
36354;BME280;22383;51.114;13.666;2023-08-06T12:37:35;69000.97;;;16.62;100.00
36354;BME280;22383;51.114;13.666;2023-08-06T12:40:02;68999.25;;;16.61;100.00
36354;BME280;22383;51.114;13.666;2023-08-06T12:42:50;69025.56;;;16.63;100.00
36354;BME280;22383;51.114;13.666;2023-08-06T12:45:17;69037.94;;;16.72;100.00
36354;BME280;22383;51.114;13.666;2023-08-06T12:47:48;69044.38;;;16.80;100.00
36354;BME280;22383;51.114;13.666;2023-08-06T12:50:17;69014.63;;;16.75;100.00
36354;BME280;22383;51.114;13.666;2023-08-06T12:52:44;69021.44;;;16.81;100.00
36354;BME280;22383;51.114;13.666;2023-08-06T12:55:12;69017.47;;;16.77;100.00
36354;BME280;22383;51.114;13.666;2023-08-06T12:57:39;69025.47;;;16.85;100.00